Time;durP1;ratioP1;P1;durP2;ratioP2;P2;SDS_P1;SDS_P2;PMS_P1;PMS_P2;Temp;Humidity;BMP_temperature;BMP_pressure;BME280_temperature;BME280_humidity;BME280_pressure;Samples;Min_cycle;Max_cycle;Signal;HPM_P1;HPM_P2
2022/08/31 00:05:28;;;;;;;6.50;5.30;;;;;;;25.79;46.60;100371.36;117171;1186;24686;-66
2022/08/31 00:07:55;;;;;;;7.50;5.80;;;;;;;25.81;46.66;100371.44;117098;1186;22989;-60
2022/08/31 00:10:26;;;;;;;6.80;5.20;;;;;;;25.81;46.52;100373.72;117280;1185;24252;-66
2022/08/31 00:13:03;;;;;;;7.30;5.20;;;;;;;25.82;46.51;100372.56;117233;1181;22947;-59
2022/08/31 00:15:33;;;;;;;9.90;5.20;;;;;;;25.83;46.56;100370.72;117221;1186;22990;-59
2022/08/31 00:17:59;;;;;;;7.90;4.80;;;;;;;25.81;46.60;100369.77;117197;1188;22703;-67
2022/08/31 00:20:27;;;;;;;8.20;5.10;;;;;;;25.79;46.64;100370.28;117403;1186;22701;-60
2022/08/31 00:23:05;;;;;;;10.10;5.10;;;;;;;25.77;46.60;100369.20;117074;1188;21965;-67
2022/08/31 00:25:33;;;;;;;8.30;4.80;;;;;;;25.76;46.54;100364.95;117095;1186;21857;-68
2022/08/31 00:28:00;;;;;;;7.70;5.20;;;;;;;25.75;46.59;100366.13;117144;1189;22990;-61
2022/08/31 00:30:28;;;;;;;8.50;5.60;;;;;;;25.71;46.50;100362.13;117377;1186;21919;-67
2022/08/31 00:32:55;;;;;;;8.40;4.60;;;;;;;25.68;46.57;100360.01;117315;1182;21903;-67
2022/08/31 00:35:28;;;;;;;10.10;5.10;;;;;;;25.65;46.65;100359.48;117333;1186;22991;-59
2022/08/31 00:37:56;;;;;;;11.60;5.10;;;;;;;25.62;46.65;100357.20;117176;1184;22625;-67
2022/08/31 00:40:23;;;;;;;9.60;5.70;;;;;;;25.59;46.60;100357.08;117221;1182;22645;-67
2022/08/31 00:42:51;;;;;;;9.20;5.70;;;;;;;25.56;46.64;100358.22;117118;1186;21857;-59
2022/08/31 00:45:18;;;;;;;9.40;5.70;;;;;;;25.52;46.70;100360.83;117173;1186;23003;-66
2022/08/31 00:47:45;;;;;;;9.50;5.50;;;;;;;25.53;46.83;100358.27;117229;1183;23650;-60
2022/08/31 00:50:14;;;;;;;7.20;5.00;;;;;;;25.51;46.67;100360.89;117262;1186;23557;-65
2022/08/31 00:52:44;;;;;;;8.30;5.20;;;;;;;25.49;46.55;100360.16;116982;1184;22972;-67
2022/08/31 00:55:14;;;;;;;7.20;5.00;;;;;;;25.47;46.56;100359.64;117013;1188;21858;-59
2022/08/31 00:57:42;;;;;;;;;;;;;;;25.45;46.56;100357.27;117167;1186;23575;-59
2022/08/31 01:00:12;;;;;;;9.20;5.10;;;;;;;25.44;46.52;100358.39;117158;1186;24150;-67
2022/08/31 01:02:39;;;;;;;7.50;5.40;;;;;;;25.41;46.56;100359.48;117096;1187;23712;-67
2022/08/31 01:05:07;;;;;;;10.00;5.60;;;;;;;25.37;46.54;100359.38;117047;1188;21845;-59
2022/08/31 01:07:34;;;;;;;7.20;5.50;;;;;;;25.35;46.49;100361.40;117135;1186;23541;-66
2022/08/31 01:10:01;;;;;;;10.60;5.50;;;;;;;25.34;46.44;100360.94;117128;1186;22929;-59
2022/08/31 01:12:28;;;;;;;10.80;5.40;;;;;;;25.32;46.54;100359.39;116987;1187;22686;-59
2022/08/31 01:14:55;;;;;;;8.60;5.20;;;;;;;25.30;46.44;100357.94;117085;1189;21851;-59
2022/08/31 01:17:22;;;;;;;10.00;5.10;;;;;;;25.29;46.46;100356.77;117323;1189;21855;-60
2022/08/31 01:20:19;;;;;;;10.90;5.80;;;;;;;25.28;46.47;100361.67;117274;1185;21848;-59
2022/08/31 01:22:56;;;;;;;11.30;5.80;;;;;;;25.27;46.53;100362.13;117105;1186;24162;-66
2022/08/31 01:25:23;;;;;;;10.30;5.80;;;;;;;25.25;46.38;100363.54;117346;1186;22902;-59
2022/08/31 01:27:59;;;;;;;6.70;5.20;;;;;;;25.24;46.31;100366.66;117085;1187;21898;-59
2022/08/31 01:30:26;;;;;;;9.20;5.60;;;;;;;25.24;46.34;100364.32;117070;1188;22932;-67
2022/08/31 01:32:53;;;;;;;8.30;5.50;;;;;;;25.24;46.34;100365.58;117249;1183;23558;-67
2022/08/31 01:35:20;;;;;;;8.00;5.10;;;;;;;25.24;46.26;100366.67;117308;1186;21859;-67
2022/08/31 01:37:47;;;;;;;7.70;5.40;;;;;;;25.23;46.27;100369.05;117144;1186;21905;-59
2022/08/31 01:40:14;;;;;;;8.00;5.60;;;;;;;25.23;46.24;100367.62;116989;1186;23659;-59
2022/08/31 01:42:42;;;;;;;8.80;5.50;;;;;;;25.23;46.18;100366.58;117263;1186;24187;-65
2022/08/31 01:45:09;;;;;;;6.40;5.50;;;;;;;25.22;46.06;100362.84;117156;1182;23557;-60
2022/08/31 01:47:38;;;;;;;8.40;5.50;;;;;;;25.22;46.08;100362.33;117174;1186;21951;-59
2022/08/31 01:50:06;;;;;;;8.30;6.20;;;;;;;25.22;46.05;100358.40;117161;1183;23019;-67
2022/08/31 01:52:34;;;;;;;10.90;5.70;;;;;;;25.22;45.97;100357.84;117206;1186;21863;-60
2022/08/31 01:55:04;;;;;;;10.20;5.30;;;;;;;25.21;45.95;100354.12;117077;1185;23549;-67
2022/08/31 01:57:31;;;;;;;8.00;5.30;;;;;;;25.20;45.95;100354.17;117203;1188;21856;-67
2022/08/31 02:00:05;;;;;;;11.80;5.30;;;;;;;25.20;45.84;100355.11;117200;1186;21879;-59
2022/08/31 02:02:32;;;;;;;11.40;5.20;;;;;;;25.19;45.74;100349.80;117362;1183;22941;-66
2022/08/31 02:04:59;;;;;;;9.20;5.50;;;;;;;25.18;45.74;100347.91;117034;1186;21893;-67
2022/08/31 02:07:26;;;;;;;10.10;5.50;;;;;;;25.16;45.65;100349.45;117041;1188;21915;-67
2022/08/31 02:09:53;;;;;;;8.80;5.30;;;;;;;25.15;45.63;100352.04;117173;1187;21883;-60
2022/08/31 02:12:21;;;;;;;10.10;5.70;;;;;;;25.13;45.52;100352.05;117188;1187;22898;-60
2022/08/31 02:14:48;;;;;;;8.10;5.20;;;;;;;25.10;45.52;100351.55;116952;1188;22915;-60
2022/08/31 02:17:15;;;;;;;9.40;5.40;;;;;;;25.08;45.55;100349.70;117141;1186;23595;-67
2022/08/31 02:19:42;;;;;;;7.70;4.80;;;;;;;25.04;45.50;100347.45;117230;1188;24019;-59
2022/08/31 02:22:09;;;;;;;11.30;5.30;;;;;;;25.01;45.61;100347.02;116847;1189;21919;-59
2022/08/31 02:24:37;;;;;;;7.50;5.30;;;;;;;24.99;45.48;100346.05;117225;1186;23696;-66
2022/08/31 02:27:04;;;;;;;9.40;5.30;;;;;;;24.96;45.40;100343.38;117112;1188;23579;-60
2022/08/31 02:29:32;;;;;;;7.90;4.80;;;;;;;24.94;45.19;100342.13;117389;1186;21917;-60
2022/08/31 02:31:59;;;;;;;6.80;4.70;;;;;;;24.91;45.24;100342.70;117564;1183;23570;-60
2022/08/31 02:34:26;;;;;;;9.40;4.80;;;;;;;24.89;45.23;100341.41;117150;1186;21900;-67
2022/08/31 02:36:54;;;;;;;9.90;5.40;;;;;;;24.87;45.24;100342.80;117237;1185;22619;-67
2022/08/31 02:39:23;;;;;;;10.70;5.30;;;;;;;24.85;45.19;100342.63;117204;1186;21918;-67
2022/08/31 02:41:50;;;;;;;7.40;5.00;;;;;;;24.82;45.16;100343.00;117111;1186;21862;-67
2022/08/31 02:44:17;;;;;;;7.90;5.10;;;;;;;24.79;45.16;100341.79;116978;1187;21918;-63
2022/08/31 02:46:44;;;;;;;10.00;5.00;;;;;;;24.74;45.01;100344.08;117131;1185;23570;-60
2022/08/31 02:49:12;;;;;;;6.80;4.80;;;;;;;24.72;45.14;100343.52;116978;1186;21946;-68
2022/08/31 02:51:40;;;;;;;8.50;5.20;;;;;;;24.70;45.14;100343.31;116994;1182;24168;-60
2022/08/31 02:54:07;;;;;;;20.50;5.90;;;;;;;24.68;45.12;100344.30;116978;1186;21895;-67
2022/08/31 02:56:34;;;;;;;24.20;5.80;;;;;;;24.68;45.10;100344.13;117109;1188;23561;-67
2022/08/31 02:59:01;;;;;;;12.80;5.40;;;;;;;24.69;45.19;100348.02;117093;1188;22930;-67
2022/08/31 03:01:28;;;;;;;15.00;5.30;;;;;;;24.70;45.17;100346.56;117127;1188;23463;-67
2022/08/31 03:03:55;;;;;;;11.20;5.10;;;;;;;24.69;45.11;100344.96;117109;1187;21899;-60
2022/08/31 03:06:23;;;;;;;12.60;5.70;;;;;;;24.68;45.04;100347.72;117245;1186;23566;-67
2022/08/31 03:08:50;;;;;;;11.50;5.00;;;;;;;24.68;45.04;100351.66;117124;1183;21845;-59
2022/08/31 03:11:17;;;;;;;11.40;5.50;;;;;;;24.68;44.94;100351.49;117074;1186;22935;-61
2022/08/31 03:13:44;;;;;;;12.80;5.50;;;;;;;24.68;44.86;100352.73;116922;1186;23567;-68
2022/08/31 03:16:12;;;;;;;9.30;5.50;;;;;;;24.68;44.92;100353.30;117046;1186;22911;-68
2022/08/31 03:18:39;;;;;;;9.60;4.90;;;;;;;24.67;44.74;100354.99;119105;1187;21765;-68
2022/08/31 03:21:06;;;;;;;7.90;4.80;;;;;;;24.64;44.71;100359.31;119111;1186;21793;-64
2022/08/31 03:23:33;;;;;;;11.80;4.60;;;;;;;24.60;44.70;100358.30;118540;1186;22638;-68
2022/08/31 03:26:00;;;;;;;10.90;5.20;;;;;;;24.57;44.72;100358.69;116910;1187;21970;-68
2022/08/31 03:28:27;;;;;;;9.00;4.70;;;;;;;24.57;44.65;100359.83;117283;1183;22638;-67
2022/08/31 03:30:54;;;;;;;8.90;5.00;;;;;;;24.55;44.73;100360.84;116820;1183;22563;-68
2022/08/31 03:33:21;;;;;;;8.80;4.70;;;;;;;24.54;44.82;100365.80;119188;1187;21843;-68
2022/08/31 03:35:49;;;;;;;7.40;5.00;;;;;;;24.53;44.72;100366.70;119237;1186;21789;-62
2022/08/31 03:38:16;;;;;;;8.80;4.60;;;;;;;24.54;44.78;100368.66;119223;1186;22104;-66
2022/08/31 03:40:43;;;;;;;9.30;5.10;;;;;;;24.52;44.63;100368.04;119065;1186;21778;-59
2022/08/31 03:43:11;;;;;;;8.00;4.70;;;;;;;24.52;44.62;100365.59;119076;1187;21861;-66
2022/08/31 03:45:39;;;;;;;9.60;4.40;;;;;;;24.53;44.69;100371.94;119199;1184;21792;-66
2022/08/31 03:48:07;;;;;;;9.30;4.50;;;;;;;24.53;44.56;100376.08;119250;1186;22101;-61
2022/08/31 03:50:38;;;;;;;17.50;5.80;;;;;;;24.54;44.55;100374.41;117415;1186;22928;-60
2022/08/31 03:53:06;;;;;;;12.20;5.20;;;;;;;24.55;44.62;100372.69;117084;1182;23566;-60
2022/08/31 03:55:33;;;;;;;24.50;5.80;;;;;;;24.58;44.51;100376.09;119294;1183;21786;-61
2022/08/31 03:58:00;;;;;;;10.30;4.80;;;;;;;24.59;44.51;100375.27;119169;1184;21910;-59
2022/08/31 04:00:29;;;;;;;7.20;4.60;;;;;;;24.62;44.60;100375.78;117246;1185;22988;-68
2022/08/31 04:02:58;;;;;;;7.30;4.50;;;;;;;24.65;44.48;100375.56;117061;1182;22929;-67
2022/08/31 04:05:29;;;;;;;9.00;4.90;;;;;;;24.69;44.58;100375.33;117214;1186;21867;-60
2022/08/31 04:07:56;;;;;;;7.60;4.70;;;;;;;24.72;44.60;100374.03;117063;1187;21899;-68
2022/08/31 04:10:23;;;;;;;9.10;4.90;;;;;;;24.74;44.57;100371.55;117266;1186;21859;-60
2022/08/31 04:12:51;;;;;;;11.40;5.30;;;;;;;24.77;44.60;100369.31;116975;1189;22940;-67
2022/08/31 04:15:19;;;;;;;7.80;5.50;;;;;;;24.84;44.61;100369.40;117139;1186;23021;-68
2022/08/31 04:17:46;;;;;;;8.00;4.90;;;;;;;24.90;44.47;100370.41;117128;1183;24312;-61
2022/08/31 04:20:16;;;;;;;11.10;5.40;;;;;;;24.97;44.54;100373.48;117200;1186;23502;-61
2022/08/31 04:22:44;;;;;;;8.50;4.90;;;;;;;25.04;44.47;100370.29;117148;1189;24167;-60
2022/08/31 04:25:11;;;;;;;7.60;5.20;;;;;;;25.11;44.39;100369.42;117104;1189;22805;-60
2022/08/31 04:27:43;;;;;;;9.70;4.70;;;;;;;25.18;44.35;100371.79;117353;1186;21873;-61
2022/08/31 04:30:11;;;;;;;11.90;4.90;;;;;;;25.23;44.30;100374.42;117199;1182;23554;-68
2022/08/31 04:32:38;;;;;;;13.80;5.10;;;;;;;25.28;44.20;100369.80;117070;1186;21846;-68
2022/08/31 04:35:07;;;;;;;9.10;4.80;;;;;;;25.34;44.18;100371.70;117030;1186;23117;-68
2022/08/31 04:37:34;;;;;;;7.80;4.30;;;;;;;25.38;44.19;100369.00;117598;1186;22920;-61
2022/08/31 04:40:03;;;;;;;9.20;4.80;;;;;;;25.42;44.10;100371.10;117102;1186;23531;-61
2022/08/31 04:42:30;;;;;;;6.30;4.60;;;;;;;25.46;44.05;100374.38;117189;1186;23472;-67
2022/08/31 04:44:57;;;;;;;7.50;4.70;;;;;;;25.51;44.13;100374.38;117029;1183;22651;-67
2022/08/31 04:47:24;;;;;;;6.80;4.90;;;;;;;25.58;44.11;100368.63;117168;1186;23002;-61
2022/08/31 04:49:52;;;;;;;12.20;4.90;;;;;;;25.66;43.96;100368.80;117109;1186;22916;-67
2022/08/31 04:52:19;;;;;;;7.80;4.50;;;;;;;25.69;43.99;100372.83;119188;1187;22232;-61
2022/08/31 04:54:54;;;;;;;8.00;4.00;;;;;;;25.75;43.84;100374.95;119232;1186;21766;-59
2022/08/31 04:57:21;;;;;;;6.70;4.30;;;;;;;25.79;43.82;100380.39;117199;1186;22969;-65
2022/08/31 04:59:48;;;;;;;6.10;4.50;;;;;;;25.86;43.82;100378.92;118558;1187;22625;-66
2022/08/31 05:02:15;;;;;;;7.50;4.20;;;;;;;25.95;43.67;100380.09;118937;1186;23653;-67
2022/08/31 05:04:42;;;;;;;6.90;4.20;;;;;;;26.06;43.71;100379.52;117241;1186;22926;-68
2022/08/31 05:07:10;;;;;;;7.20;4.40;;;;;;;26.17;43.58;100378.73;117206;1183;23578;-68
2022/08/31 05:09:37;;;;;;;7.00;4.20;;;;;;;26.27;43.38;100376.33;117514;1188;21856;-68
2022/08/31 05:12:04;;;;;;;8.20;4.80;;;;;;;26.38;43.37;100373.38;117104;1182;22966;-68
2022/08/31 05:14:31;;;;;;;9.60;4.90;;;;;;;26.50;43.34;100373.86;117174;1183;23582;-68
2022/08/31 05:17:00;;;;;;;7.80;4.20;;;;;;;26.59;43.23;100370.21;117097;1186;22626;-68
2022/08/31 05:19:27;;;;;;;7.10;4.40;;;;;;;26.68;43.09;100371.71;117005;1183;23560;-68
2022/08/31 05:21:55;;;;;;;14.40;5.50;;;;;;;26.72;42.92;100371.52;116971;1186;24287;-60
2022/08/31 05:24:22;;;;;;;5.80;4.10;;;;;;;26.74;42.73;100370.10;116830;1186;21923;-61
2022/08/31 05:26:52;;;;;;;7.40;3.90;;;;;;;26.77;42.70;100368.84;116920;1187;22666;-68
2022/08/31 05:29:21;;;;;;;6.80;4.00;;;;;;;26.81;42.67;100363.61;117126;1186;23728;-68
2022/08/31 05:31:48;;;;;;;6.50;3.80;;;;;;;26.89;42.58;100365.75;117128;1186;23530;-60
2022/08/31 05:34:19;;;;;;;7.10;4.70;;;;;;;26.97;42.52;100368.69;117055;1187;21908;-60
2022/08/31 05:36:50;;;;;;;6.50;3.70;;;;;;;27.04;42.42;100371.55;117040;1183;24180;-60
2022/08/31 05:39:16;;;;;;;10.10;4.30;;;;;;;27.10;42.35;100374.25;117177;1186;21942;-60
2022/08/31 05:41:44;;;;;;;5.90;4.00;;;;;;;27.16;42.27;100375.76;117218;1182;23363;-60
2022/08/31 05:44:11;;;;;;;7.40;4.40;;;;;;;27.24;42.04;100373.33;117369;1185;23297;-60
2022/08/31 05:46:38;;;;;;;6.00;4.40;;;;;;;27.29;41.97;100375.42;117219;1186;21921;-60
2022/08/31 05:49:06;;;;;;;7.50;3.90;;;;;;;27.36;42.16;100374.64;117262;1186;21864;-67
2022/08/31 05:51:34;;;;;;;9.10;4.40;;;;;;;27.46;41.98;100371.86;117251;1186;21893;-60
2022/08/31 05:54:06;;;;;;;26.80;6.00;;;;;;;27.57;41.88;100369.16;116860;1186;23557;-59
2022/08/31 05:56:34;;;;;;;13.70;5.10;;;;;;;27.68;41.88;100367.20;117228;1182;22635;-61
2022/08/31 05:59:01;;;;;;;11.80;5.10;;;;;;;27.79;41.51;100366.25;117181;1185;22841;-69
2022/08/31 06:01:30;;;;;;;10.30;5.70;;;;;;;27.90;41.38;100366.97;117520;1183;21857;-61
2022/08/31 06:03:58;;;;;;;9.50;5.30;;;;;;;28.03;41.38;100366.00;117315;1182;21870;-60
2022/08/31 06:06:25;;;;;;;10.00;4.40;;;;;;;28.18;41.17;100365.86;117044;1186;21920;-69
2022/08/31 06:08:53;;;;;;;12.40;4.20;;;;;;;28.36;40.96;100368.24;117081;1183;21866;-69
2022/08/31 06:11:24;;;;;;;8.70;4.40;;;;;;;28.52;40.81;100370.96;117012;1186;21930;-68
2022/08/31 06:13:52;;;;;;;6.80;4.10;;;;;;;28.65;40.68;100368.36;117189;1187;23028;-68
2022/08/31 06:16:20;;;;;;;10.80;4.10;;;;;;;28.82;40.70;100369.10;117260;1186;21867;-68
2022/08/31 06:18:50;;;;;;;5.50;4.20;;;;;;;28.99;40.50;100364.66;117370;1185;21854;-61
2022/08/31 06:21:21;;;;;;;7.00;3.70;;;;;;;29.15;40.41;100362.13;117166;1182;23635;-62
2022/08/31 06:23:49;;;;;;;9.00;4.10;;;;;;;29.31;40.14;100363.21;117093;1183;23905;-68
2022/08/31 06:26:18;;;;;;;7.70;4.50;;;;;;;29.47;40.02;100361.58;117271;1182;23558;-61
2022/08/31 06:28:47;;;;;;;6.90;4.00;;;;;;;29.64;39.87;100362.08;117140;1186;23453;-68
2022/08/31 06:31:26;;;;;;;6.60;4.00;;;;;;;29.82;39.98;100361.30;117140;1189;21848;-68
2022/08/31 06:33:54;;;;;;;7.50;4.40;;;;;;;30.01;39.52;100360.41;117172;1182;24254;-62
2022/08/31 06:36:24;;;;;;;6.60;3.60;;;;;;;30.18;39.28;100360.26;117211;1183;21858;-68
2022/08/31 06:38:51;;;;;;;9.00;4.70;;;;;;;30.34;39.15;100356.60;117152;1187;22912;-68
2022/08/31 06:41:21;;;;;;;7.00;3.80;;;;;;;30.53;39.26;100357.88;117148;1183;22938;-62
2022/08/31 06:43:48;;;;;;;7.20;3.60;;;;;;;30.73;38.86;100360.50;117121;1186;22715;-68
2022/08/31 06:46:16;;;;;;;10.00;3.80;;;;;;;30.87;38.58;100359.11;117128;1182;22911;-61
2022/08/31 06:48:44;;;;;;;7.90;3.70;;;;;;;31.03;38.67;100356.56;117174;1186;21885;-66
2022/08/31 06:51:12;;;;;;;10.10;4.00;;;;;;;31.24;38.43;100353.14;117202;1185;21865;-68
2022/08/31 06:53:41;;;;;;;7.90;3.90;;;;;;;31.44;38.16;100352.38;117073;1188;23652;-69
2022/08/31 06:56:11;;;;;;;5.40;3.60;;;;;;;31.56;37.94;100350.23;117942;1188;22448;-61
2022/08/31 06:58:47;;;;;;;7.70;3.70;;;;;;;31.66;37.88;100347.21;117166;1188;21858;-68
2022/08/31 07:01:22;;;;;;;8.00;3.60;;;;;;;31.79;37.69;100350.10;117134;1186;21859;-62
2022/08/31 07:04:07;;;;;;;11.90;4.60;;;;;;;31.93;37.72;100350.13;117160;1188;21848;-69
2022/08/31 07:06:39;;;;;;;5.80;4.00;;;;;;;32.12;37.60;100350.88;117170;1186;22671;-68
2022/08/31 07:09:08;;;;;;;6.70;4.00;;;;;;;32.32;37.50;100350.77;117393;1186;22537;-64
2022/08/31 07:11:38;;;;;;;10.40;3.80;;;;;;;32.50;37.34;100350.39;117182;1182;22971;-68
2022/08/31 07:14:13;;;;;;;13.50;4.80;;;;;;;32.67;37.23;100348.77;117103;1186;21845;-62
2022/08/31 07:16:41;;;;;;;7.40;3.60;;;;;;;32.84;37.03;100348.25;117188;1186;21859;-62
2022/08/31 07:19:08;;;;;;;7.90;4.10;;;;;;;32.98;36.92;100346.40;117194;1186;22723;-62
2022/08/31 07:21:40;;;;;;;9.90;4.40;;;;;;;33.11;36.78;100348.13;117173;1186;21849;-62
2022/08/31 07:24:09;;;;;;;5.00;3.50;;;;;;;33.17;36.69;100341.59;117302;1182;21929;-68
2022/08/31 07:26:47;;;;;;;5.80;3.90;;;;;;;33.27;36.64;100343.30;117103;1188;22323;-68
2022/08/31 07:29:17;;;;;;;7.60;3.70;;;;;;;33.47;36.51;100342.35;117179;1186;23530;-62
2022/08/31 07:31:46;;;;;;;9.70;4.20;;;;;;;33.64;36.08;100343.98;117240;1189;21857;-62
2022/08/31 07:34:13;;;;;;;6.30;3.40;;;;;;;33.85;36.23;100341.84;117096;1186;23636;-69
2022/08/31 07:42:14;;;;;;;6.20;4.40;;;;;;;34.32;35.73;100335.84;117209;1182;21917;-68
2022/08/31 07:44:41;;;;;;;8.10;3.80;;;;;;;34.48;35.15;100339.02;117152;1183;21870;-61
2022/08/31 07:47:19;;;;;;;8.30;3.50;;;;;;;34.57;34.97;100337.42;116980;1186;21867;-62
2022/08/31 07:49:50;;;;;;;5.60;3.70;;;;;;;34.68;35.03;100337.05;117000;1186;23486;-68
2022/08/31 07:52:30;;;;;;;5.00;3.40;;;;;;;34.84;34.91;100333.22;117043;1186;21848;-68
2022/08/31 07:55:03;;;;;;;;;;;;;;;34.96;34.75;100332.92;117108;1189;22978;-64
2022/08/31 07:57:36;;;;;;;6.10;3.80;;;;;;;35.04;34.50;100329.72;117267;1186;21859;-64
2022/08/31 08:00:07;;;;;;;9.30;3.90;;;;;;;35.07;34.33;100328.60;117043;1189;21844;-64
2022/08/31 08:02:39;;;;;;;11.80;3.40;;;;;;;35.14;34.33;100328.30;117006;1187;22648;-62
2022/08/31 08:05:09;;;;;;;11.70;3.70;;;;;;;35.29;34.26;100323.10;117049;1187;21856;-68
2022/08/31 08:07:38;;;;;;;11.20;3.80;;;;;;;35.50;34.01;100321.33;117046;1186;22007;-63
2022/08/31 08:10:13;;;;;;;10.80;4.10;;;;;;;35.74;33.82;100321.10;117569;1186;23561;-68
2022/08/31 08:12:41;;;;;;;6.60;4.30;;;;;;;35.95;33.49;100317.61;117177;1187;21865;-64
2022/08/31 08:15:09;;;;;;;6.30;3.50;;;;;;;36.14;33.50;100316.09;117895;1186;23472;-68
2022/08/31 08:17:36;;;;;;;12.30;3.80;;;;;;;36.38;33.59;100313.55;117536;1182;21851;-68
2022/08/31 08:20:05;;;;;;;8.40;3.90;;;;;;;36.60;33.48;100312.29;117136;1182;22063;-67
2022/08/31 08:22:39;;;;;;;6.90;3.50;;;;;;;36.81;33.00;100310.26;117202;1188;21848;-68
2022/08/31 08:25:20;;;;;;;8.40;3.80;;;;;;;37.05;32.71;100305.47;117100;1186;21861;-68
2022/08/31 08:27:53;;;;;;;7.00;3.80;;;;;;;37.31;32.58;100303.64;117112;1186;21846;-68
2022/08/31 08:30:20;;;;;;;9.50;3.60;;;;;;;37.49;32.47;100297.71;117185;1186;22631;-68
2022/08/31 08:32:48;;;;;;;8.80;4.20;;;;;;;37.62;32.19;100296.34;117166;1183;22983;-64
2022/08/31 08:35:15;;;;;;;13.10;5.50;;;;;;;37.75;32.03;100293.64;117315;1183;22925;-69
2022/08/31 08:37:45;;;;;;;22.60;6.40;;;;;;;37.87;31.75;100289.69;117015;1191;21870;-68
2022/08/31 08:40:41;;;;;;;16.70;6.30;;;;;;;38.05;31.61;100292.31;117118;1188;21860;-66
2022/08/31 08:43:14;;;;;;;12.20;4.80;;;;;;;38.15;31.57;100292.96;117133;1183;21854;-67
2022/08/31 08:45:43;;;;;;;9.50;3.70;;;;;;;38.22;31.40;100294.11;117127;1187;22928;-67
2022/08/31 08:48:12;;;;;;;8.00;3.60;;;;;;;38.23;31.29;100292.65;117112;1188;23569;-68
2022/08/31 08:50:39;;;;;;;5.80;3.90;;;;;;;38.22;31.38;100290.61;117086;1186;21854;-68
2022/08/31 08:53:09;;;;;;;7.50;3.80;;;;;;;38.32;31.36;100292.98;117258;1185;22941;-64
2022/08/31 08:55:40;;;;;;;5.20;3.80;;;;;;;38.48;31.25;100293.48;117113;1186;21879;-65
2022/08/31 08:58:10;;;;;;;8.20;4.00;;;;;;;38.69;31.04;100290.48;117525;1187;22070;-64
2022/08/31 09:00:45;;;;;;;6.30;3.70;;;;;;;38.91;30.24;100291.96;117461;1183;22922;-68
2022/08/31 09:03:29;;;;;;;6.00;3.10;;;;;;;39.03;30.62;100294.54;117164;1183;23004;-64
2022/08/31 09:06:08;;;;;;;8.40;4.20;;;;;;;39.11;30.56;100290.48;118322;1186;23018;-63
2022/08/31 09:08:42;;;;;;;7.90;3.90;;;;;;;39.21;29.99;100290.79;117214;1185;21855;-68
2022/08/31 09:11:22;;;;;;;5.70;3.90;;;;;;;39.24;30.06;100292.39;117278;1185;23296;-67
2022/08/31 09:14:28;;;;;;;5.60;3.50;;;;;;;39.31;29.98;100295.63;117179;1186;22792;-63
2022/08/31 09:17:15;;;;;;;7.10;4.10;;;;;;;39.36;30.09;100290.48;117147;1186;23042;-63
2022/08/31 09:22:33;;;;;;;5.80;3.40;;;;;;;39.78;29.51;100281.31;116951;1188;22467;-63
2022/08/31 09:25:02;;;;;;;8.80;3.80;;;;;;;39.87;29.36;100275.66;117156;1182;24023;-69
2022/08/31 09:28:06;;;;;;;9.00;3.80;;;;;;;39.99;29.66;100275.92;117158;1186;21871;-62
2022/08/31 09:30:50;;;;;;;6.10;3.90;;;;;;;40.16;29.22;100275.20;119063;1181;21809;-67
2022/08/31 09:33:22;;;;;;;19.50;5.20;;;;;;;40.24;28.97;100274.92;117122;1185;21904;-63
2022/08/31 09:35:57;;;;;;;177.20;21.90;;;;;;;40.20;28.86;100269.58;116994;1185;21873;-65
2022/08/31 09:38:39;;;;;;;100.20;13.50;;;;;;;40.24;28.76;100268.99;117584;1186;21866;-64
2022/08/31 09:41:21;;;;;;;166.20;20.90;;;;;;;40.37;28.59;100263.82;117104;1183;23613;-68
2022/08/31 09:43:49;;;;;;;90.10;14.20;;;;;;;40.40;28.76;100259.55;117014;1183;22533;-69
2022/08/31 09:46:28;;;;;;;20.00;5.50;;;;;;;40.47;28.55;100252.52;117150;1184;22647;-63
2022/08/31 09:48:57;;;;;;;12.90;4.40;;;;;;;40.67;28.50;100246.94;117098;1187;23557;-64
2022/08/31 09:51:27;;;;;;;8.20;4.10;;;;;;;40.83;27.89;100247.38;117143;1187;21854;-69
2022/08/31 09:56:57;;;;;;;9.50;4.70;;;;;;;40.98;27.79;100252.84;117165;1188;23683;-69
2022/08/31 09:59:46;;;;;;;7.90;3.80;;;;;;;40.95;27.72;100254.93;117121;1186;21872;-63
2022/08/31 10:02:21;;;;;;;7.10;3.70;;;;;;;40.96;27.54;100257.01;117122;1186;21870;-63
2022/08/31 10:05:04;;;;;;;4.50;3.30;;;;;;;40.83;26.90;100261.25;117121;1186;23019;-69
2022/08/31 10:07:42;;;;;;;13.80;4.10;;;;;;;40.67;27.03;100261.20;117139;1188;22711;-63
2022/08/31 10:10:14;;;;;;;11.90;4.30;;;;;;;40.63;27.60;100256.09;117117;1183;22970;-69
2022/08/31 10:13:03;;;;;;;7.30;4.00;;;;;;;40.68;27.34;100257.48;116856;1188;22502;-63
2022/08/31 10:15:38;;;;;;;7.60;3.70;;;;;;;40.75;27.59;100255.15;116991;1187;21905;-68
2022/08/31 10:18:24;;;;;;;8.40;3.60;;;;;;;40.88;26.87;100254.92;117193;1185;21858;-67
2022/08/31 10:21:08;;;;;;;5.30;3.50;;;;;;;40.87;26.68;100248.48;117271;1183;21861;-69
2022/08/31 10:24:07;;;;;;;8.00;3.50;;;;;;;40.88;26.30;100243.52;117131;1187;23706;-68
2022/08/31 10:26:45;;;;;;;6.50;3.40;;;;;;;41.07;26.50;100236.84;117108;1187;21860;-67
2022/08/31 10:29:17;;;;;;;8.50;4.10;;;;;;;41.07;26.29;100234.93;117180;1182;21863;-70
2022/08/31 10:31:51;;;;;;;8.10;3.50;;;;;;;40.96;26.15;100234.88;116992;1187;21870;-69
2022/08/31 10:37:30;;;;;;;6.40;3.60;;;;;;;40.92;26.17;100239.45;117016;1188;21861;-68
2022/08/31 10:39:59;;;;;;;5.10;3.40;;;;;;;41.01;26.25;100242.67;117282;1186;23573;-69
2022/08/31 10:42:36;;;;;;;4.30;3.20;;;;;;;41.20;26.37;100247.28;117111;1188;22928;-70
2022/08/31 10:45:13;;;;;;;6.40;2.80;;;;;;;41.39;26.59;100242.70;117134;1183;23558;-69
2022/08/31 10:47:47;;;;;;;9.60;3.30;;;;;;;41.60;26.08;100239.59;117119;1186;21860;-69
2022/08/31 10:50:29;;;;;;;18.40;5.10;;;;;;;41.60;25.23;100239.08;117106;1182;22926;-63
2022/08/31 10:53:25;;;;;;;7.70;3.50;;;;;;;41.35;25.26;100243.80;116969;1186;21863;-63
2022/08/31 10:56:17;;;;;;;6.40;3.50;;;;;;;41.28;25.15;100241.15;117228;1186;21858;-63
2022/08/31 10:59:06;;;;;;;7.70;3.60;;;;;;;41.25;25.35;100241.14;117104;1187;22824;-63
2022/08/31 11:01:47;;;;;;;6.70;3.50;;;;;;;41.24;24.87;100238.43;117199;1186;22938;-66
2022/08/31 11:04:28;;;;;;;4.40;3.50;;;;;;;41.05;24.91;100231.77;117101;1186;22033;-66
2022/08/31 11:06:59;;;;;;;4.90;3.50;;;;;;;40.96;25.12;100229.20;117154;1182;21861;-65
2022/08/31 11:09:53;;;;;;;8.10;3.00;;;;;;;41.07;24.96;100231.33;117043;1182;21847;-65
2022/08/31 11:12:32;;;;;;;4.10;2.90;;;;;;;41.00;23.95;100225.86;116993;1187;21878;-62
2022/08/31 11:15:27;;;;;;;7.80;3.20;;;;;;;40.74;24.07;100226.80;117206;1185;23468;-61
2022/08/31 11:18:23;;;;;;;7.50;2.90;;;;;;;40.59;24.38;100222.08;117110;1186;21867;-62
2022/08/31 11:20:59;;;;;;;5.70;2.80;;;;;;;40.62;24.97;100223.02;117073;1186;23630;-62
2022/08/31 11:23:35;;;;;;;4.50;2.80;;;;;;;40.81;24.80;100222.39;117074;1186;21867;-62
2022/08/31 11:26:35;;;;;;;6.30;3.40;;;;;;;41.00;24.94;100222.66;117188;1186;21865;-62
2022/08/31 11:29:28;;;;;;;4.50;3.10;;;;;;;41.05;24.63;100218.19;117061;1187;21859;-62
2022/08/31 11:32:20;;;;;;;4.60;2.90;;;;;;;41.07;24.59;100219.67;117084;1183;22812;-63
2022/08/31 11:34:50;;;;;;;11.90;3.30;;;;;;;41.12;24.45;100223.02;117054;1186;22017;-63
2022/08/31 11:37:51;;;;;;;6.40;3.00;;;;;;;41.15;24.75;100226.73;117096;1186;22828;-63
2022/08/31 11:40:42;;;;;;;8.90;3.20;;;;;;;41.22;24.74;100220.05;117050;1188;23481;-63
2022/08/31 11:43:14;;;;;;;6.80;3.60;;;;;;;41.38;24.28;100217.95;117042;1187;23578;-62
2022/08/31 11:45:41;;;;;;;3.80;3.20;;;;;;;41.42;24.47;100209.75;117095;1183;21868;-61
2022/08/31 11:49:00;;;;;;;5.50;3.20;;;;;;;41.47;24.09;100206.42;117058;1188;22101;-62
2022/08/31 11:51:39;;;;;;;5.00;3.50;;;;;;;41.43;24.11;100203.59;117022;1185;21857;-63
2022/08/31 11:54:13;;;;;;;;;;;;;;;41.36;23.47;100198.94;117643;1187;21890;-64